Time;durP1;ratioP1;P1;durP2;ratioP2;P2;SDS_P1;SDS_P2;PMS_P1;PMS_P2;Temp;Humidity;BMP_temperature;BMP_pressure;BME280_temperature;BME280_humidity;BME280_pressure;Samples;Min_cycle;Max_cycle;Signal;HPM_P1;HPM_P2
2021/04/26 00:06:26;;;;;;;10.20;3.72;;;;;;;8.35;45.73;96924.19;6175395;23;20008;-86
2021/04/26 00:14:02;;;;;;;7.03;4.13;;;;;;;8.28;45.70;96921.41;6156305;23;20014;-87
2021/04/26 04:27:43;;;;;;;6.63;3.67;;;;;;;5.58;46.83;96693.28;6171904;23;20028;-82
2021/04/26 04:30:19;;;;;;;7.53;4.40;;;;;;;5.56;47.06;96689.22;6191755;23;20015;-82
2021/04/26 04:35:25;;;;;;;7.75;4.03;;;;;;;5.55;47.33;96696.19;6195726;23;20043;-84
2021/04/26 04:38:00;;;;;;;9.05;4.25;;;;;;;5.58;47.20;96692.50;6189966;23;20017;-81
2021/04/26 04:43:12;;;;;;;7.88;4.30;;;;;;;5.68;46.70;96693.19;6196118;23;20024;-79
2021/04/26 04:46:06;;;;;;;6.88;4.45;;;;;;;5.73;47.04;96690.19;6189087;23;20007;-80
2021/04/26 04:48:35;;;;;;;8.45;4.00;;;;;;;5.77;47.43;96681.97;6210618;23;20040;-80
2021/04/26 05:12:45;;;;;;;7.97;4.53;;;;;;;6.09;47.04;96690.16;6206487;22;19997;-81
2021/04/26 05:15:15;;;;;;;8.48;4.63;;;;;;;6.11;47.18;96694.22;6213398;23;20005;-82
2021/04/26 05:17:47;;;;;;;6.30;4.35;;;;;;;6.08;47.34;96698.88;6212127;23;20019;-81
2021/04/26 05:20:17;;;;;;;8.05;5.03;;;;;;;6.06;47.09;96690.47;6212771;23;20009;-81
2021/04/26 05:22:46;;;;;;;8.10;4.25;;;;;;;6.03;46.81;96686.41;6212203;23;20005;-81
2021/04/26 05:25:14;;;;;;;8.30;4.43;;;;;;;6.03;47.10;96685.59;6211020;23;20024;-81
2021/04/26 05:27:43;;;;;;;11.90;6.63;;;;;;;6.04;47.30;96685.44;6212823;23;20001;-81
2021/04/26 05:30:12;;;;;;;10.82;4.57;;;;;;;6.05;47.52;96694.81;6213194;23;20021;-81
2021/04/26 05:32:45;;;;;;;5.50;4.75;;;;;;;6.03;47.49;96693.34;6212908;23;20028;-81
2021/04/26 05:35:15;;;;;;;10.60;5.00;;;;;;;5.98;47.11;96689.44;6212988;23;20005;-81
2021/04/26 08:22:18;;;;;;;7.30;4.63;;;;;;;11.82;38.16;96673.97;6145831;23;20013;-78
2021/04/26 08:24:45;;;;;;;7.68;4.70;;;;;;;12.00;38.60;96677.97;6144280;23;20031;-78
2021/04/26 08:27:12;;;;;;;5.80;4.90;;;;;;;12.19;37.82;96674.69;6190981;23;20031;-80
2021/04/26 08:29:38;;;;;;;5.80;4.32;;;;;;;12.34;36.95;96675.41;6192688;23;20548;-80
2021/04/26 08:32:05;;;;;;;7.05;4.50;;;;;;;12.49;38.07;96666.66;6192164;23;20076;-77
2021/04/26 08:34:32;;;;;;;7.70;4.72;;;;;;;12.71;37.55;96664.78;6190953;23;20103;-78
2021/04/26 08:36:59;;;;;;;6.63;4.68;;;;;;;12.93;37.02;96665.47;6192510;23;20017;-77
2021/04/26 08:39:26;;;;;;;6.57;4.30;;;;;;;13.09;36.29;96661.72;6191796;23;20017;-78
2021/04/26 08:41:53;;;;;;;17.52;4.75;;;;;;;13.26;35.69;96656.94;6189407;23;20024;-78
2021/04/26 08:44:20;;;;;;;7.22;4.72;;;;;;;13.40;35.69;96658.59;6188484;23;20028;-81
2021/04/26 08:46:47;;;;;;;7.45;4.65;;;;;;;13.58;35.73;96648.38;6189457;23;20529;-79
2021/04/26 08:49:17;;;;;;;27.15;5.80;;;;;;;13.74;35.28;96654.25;6190946;23;20486;-78
2021/04/26 08:51:44;;;;;;;105.82;11.00;;;;;;;13.94;35.20;96657.69;6190949;23;20021;-78
2021/04/26 08:54:15;;;;;;;11.93;5.25;;;;;;;14.15;36.20;96650.63;6191929;23;20053;-90
2021/04/26 08:56:47;;;;;;;10.82;4.85;;;;;;;14.32;34.44;96651.00;6193268;23;20017;-83
2021/04/26 08:59:15;;;;;;;6.05;4.57;;;;;;;14.47;34.41;96651.56;6190262;23;20021;-80
2021/04/26 09:01:46;;;;;;;10.40;4.55;;;;;;;14.64;34.00;96646.72;6192972;23;20052;-82
2021/04/26 09:04:13;;;;;;;13.93;5.43;;;;;;;14.80;34.13;96653.34;6194136;23;20056;-83
2021/04/26 09:06:50;;;;;;;12.73;4.97;;;;;;;14.92;33.39;96656.97;6193339;23;20013;-82
2021/04/26 09:09:36;;;;;;;6.32;3.90;;;;;;;15.09;33.93;96646.78;6192621;23;20484;-84
2021/04/26 09:12:06;;;;;;;6.15;4.78;;;;;;;15.25;33.34;96643.66;6196668;23;20031;-82
2021/04/26 09:14:51;;;;;;;7.20;5.20;;;;;;;15.34;32.30;96638.19;6196697;23;20067;-80
2021/04/26 09:17:29;;;;;;;7.32;5.18;;;;;;;15.37;32.70;96633.31;6198501;23;20412;-81
2021/04/26 09:19:58;;;;;;;7.10;4.70;;;;;;;15.42;32.52;96640.56;6199181;23;20096;-80
2021/04/26 09:22:46;;;;;;;6.10;4.60;;;;;;;15.46;32.07;96641.75;6197950;23;20080;-80
2021/04/26 09:25:26;;;;;;;7.88;4.68;;;;;;;15.49;31.72;96645.78;6196442;23;20107;-81
2021/04/26 09:27:55;;;;;;;10.10;5.05;;;;;;;15.48;32.21;96637.09;6198057;23;20033;-80
2021/04/26 09:30:45;;;;;;;6.82;3.83;;;;;;;15.59;32.85;96640.84;6197580;23;20021;-81
2021/04/26 09:33:27;;;;;;;8.18;5.20;;;;;;;15.68;31.71;96636.97;6193033;23;20060;-82
2021/04/26 09:36:04;;;;;;;12.27;4.93;;;;;;;15.71;31.27;96633.09;6199014;23;20049;-80
2021/04/26 09:38:33;;;;;;;5.53;4.65;;;;;;;15.77;31.93;96627.03;6199454;23;20069;-80
2021/04/26 09:41:15;;;;;;;8.80;4.50;;;;;;;15.85;31.02;96634.63;6200674;23;20052;-83
2021/04/26 09:43:44;;;;;;;10.05;4.85;;;;;;;15.93;30.79;96636.19;6199070;23;20065;-81
2021/04/26 09:46:11;;;;;;;6.25;4.20;;;;;;;15.93;30.45;96623.84;6198685;23;20072;-81
2021/04/26 09:48:38;;;;;;;5.68;3.95;;;;;;;15.92;30.82;96614.34;6198176;23;20021;-80
2021/04/26 09:51:07;;;;;;;11.45;4.45;;;;;;;16.02;30.90;96619.91;6197585;23;20021;-83
2021/04/26 09:53:44;;;;;;;5.72;3.75;;;;;;;16.11;30.49;96612.56;6198964;23;20017;-81
2021/04/26 09:56:13;;;;;;;10.30;4.88;;;;;;;16.27;31.47;96611.22;6200131;23;20379;-83
2021/04/26 09:58:42;;;;;;;9.48;4.20;;;;;;;16.40;30.37;96611.09;6201905;23;20021;-82
2021/04/26 10:01:15;;;;;;;5.03;3.78;;;;;;;16.49;29.68;96614.22;6201623;23;20025;-79
2021/04/26 10:03:42;;;;;;;8.40;4.60;;;;;;;16.54;30.02;96610.94;6200295;23;20410;-80
2021/04/26 10:06:12;;;;;;;5.07;3.72;;;;;;;16.58;30.06;96615.53;6201026;23;20020;-81
2021/04/26 10:08:40;;;;;;;6.22;3.90;;;;;;;16.62;29.57;96613.28;6200725;23;20088;-80
2021/04/26 10:11:10;;;;;;;5.50;4.30;;;;;;;16.61;28.16;96614.28;6201515;23;20036;-81
2021/04/26 10:13:37;;;;;;;8.70;3.72;;;;;;;16.65;28.97;96607.56;6204294;23;20561;-83
2021/04/26 10:16:10;;;;;;;5.10;3.78;;;;;;;16.71;29.49;96611.97;6201514;23;20028;-82
2021/04/26 10:18:39;;;;;;;6.18;3.50;;;;;;;16.83;29.56;96601.50;6199845;23;20088;-81
2021/04/26 10:21:32;;;;;;;4.90;3.70;;;;;;;16.96;29.31;96603.97;6200477;23;20056;-82
2021/04/26 10:24:14;;;;;;;7.70;3.80;;;;;;;17.13;29.40;96604.19;6201445;23;20462;-83
2021/04/26 10:26:47;;;;;;;6.07;2.97;;;;;;;17.28;28.34;96595.88;6198983;23;20465;-85
2021/04/26 10:29:23;;;;;;;10.65;3.47;;;;;;;17.29;26.77;96595.66;6199902;23;20031;-83
2021/04/26 10:32:04;;;;;;;5.43;3.72;;;;;;;17.30;27.48;96599.09;6198126;23;20365;-82
2021/04/26 10:34:33;;;;;;;7.82;4.00;;;;;;;17.35;27.37;96596.59;6198428;23;20044;-80
2021/04/26 10:37:03;;;;;;;5.47;4.30;;;;;;;17.25;27.61;96602.41;6198896;23;20099;-81
2021/04/26 10:39:33;;;;;;;5.72;3.92;;;;;;;17.14;28.04;96595.22;6203169;23;20056;-85
2021/04/26 10:42:09;;;;;;;5.50;3.70;;;;;;;17.13;27.00;96598.91;6209596;23;20020;-81
2021/04/26 10:44:59;;;;;;;7.05;4.15;;;;;;;17.07;27.50;96589.25;6209180;23;20032;-90
2021/04/26 10:47:41;;;;;;;6.55;4.30;;;;;;;17.03;27.31;96586.28;6202035;23;20092;-90
2021/04/26 10:50:39;;;;;;;5.55;4.50;;;;;;;17.02;27.24;96584.66;6209055;23;20021;-90
2021/04/26 10:55:51;;;;;;;7.10;4.28;;;;;;;17.18;27.12;96587.69;6181416;23;20051;-80
2021/04/26 10:58:29;;;;;;;5.72;4.13;;;;;;;17.15;26.46;96581.03;6187376;23;20075;-79
2021/04/26 11:00:56;;;;;;;10.43;4.40;;;;;;;17.20;27.20;96572.47;6186856;23;20134;-79
2021/04/26 11:03:38;;;;;;;6.57;3.80;;;;;;;17.27;27.09;96568.72;6186905;23;20021;-79
2021/04/26 11:06:21;;;;;;;7.45;3.80;;;;;;;17.30;27.14;96567.47;6186345;23;20027;-79
2021/04/26 11:09:05;;;;;;;9.85;5.05;;;;;;;17.27;26.99;96562.63;6186878;23;20021;-79
2021/04/26 11:11:36;;;;;;;29.58;6.38;;;;;;;17.23;27.77;96562.28;6197451;23;20021;-79
2021/04/26 11:14:03;;;;;;;6.78;3.58;;;;;;;17.29;28.17;96550.84;6213240;23;20020;-78
2021/04/26 11:17:03;;;;;;;8.20;4.05;;;;;;;17.38;26.73;96553.13;6211226;23;20013;-78
2021/04/26 11:19:33;;;;;;;7.05;3.83;;;;;;;17.36;26.91;96540.19;6203547;23;20017;-79
2021/04/26 11:22:04;;;;;;;25.63;15.80;;;;;;;17.39;26.77;96542.38;6187430;23;20040;-79
2021/04/26 11:25:00;;;;;;;9.52;7.40;;;;;;;17.43;26.37;96542.72;6186875;23;20023;-79
2021/04/26 11:27:27;;;;;;;11.95;8.48;;;;;;;17.40;26.58;96540.53;6187521;23;20514;-79
2021/04/26 11:30:17;;;;;;;7.25;5.15;;;;;;;17.40;26.14;96537.91;6203487;23;20021;-79
2021/04/26 11:33:13;;;;;;;12.80;7.93;;;;;;;17.47;26.84;96535.94;6211853;23;20029;-79
2021/04/26 11:36:13;;;;;;;7.90;5.60;;;;;;;17.55;25.86;96530.34;6197999;23;20100;-79
2021/04/26 11:38:42;;;;;;;13.02;5.03;;;;;;;17.49;25.14;96524.16;6185784;23;20458;-79
2021/04/26 11:41:09;;;;;;;7.82;4.10;;;;;;;17.32;25.36;96522.41;6185561;23;20017;-79
2021/04/26 11:43:50;;;;;;;6.22;3.85;;;;;;;17.21;24.92;96516.88;6185729;23;20027;-79
2021/04/26 12:07:47;;;;;;;10.88;3.50;;;;;;;17.09;24.89;96465.97;6173551;23;20027;-78
2021/04/26 12:10:15;;;;;;;5.13;3.50;;;;;;;17.12;25.13;96468.16;6183964;23;20445;-78
2021/04/26 12:12:43;;;;;;;8.27;4.25;;;;;;;17.16;25.22;96464.03;6184731;23;20032;-79
2021/04/26 12:15:12;;;;;;;5.43;4.00;;;;;;;17.21;25.54;96463.38;6183846;23;20017;-79
2021/04/26 12:17:40;;;;;;;7.65;4.03;;;;;;;17.26;26.28;96459.00;6185472;23;20044;-79
2021/04/26 12:20:13;;;;;;;4.97;3.60;;;;;;;17.35;26.55;96458.69;6185584;23;20021;-79
2021/04/26 12:22:40;;;;;;;9.45;4.28;;;;;;;17.36;25.28;96449.72;6188598;23;20028;-78
2021/04/26 12:25:10;;;;;;;4.63;3.88;;;;;;;17.30;25.82;96449.63;6185667;23;20025;-79
2021/04/26 12:27:37;;;;;;;5.65;3.60;;;;;;;17.24;25.27;96447.88;6185346;23;20021;-79
2021/04/26 12:30:15;;;;;;;6.95;3.47;;;;;;;17.24;26.24;96444.47;6184828;23;20021;-80
2021/04/26 12:32:49;;;;;;;5.43;3.38;;;;;;;17.36;26.63;96439.19;6185392;23;20025;-79
2021/04/26 12:35:18;;;;;;;8.07;3.58;;;;;;;17.43;26.21;96442.53;6185881;23;20100;-79
2021/04/26 12:37:47;;;;;;;4.82;4.00;;;;;;;17.49;25.63;96438.97;6184621;23;20036;-80
2021/04/26 12:40:21;;;;;;;3.63;3.22;;;;;;;17.45;24.77;96437.84;6185370;23;20013;-79
2021/04/26 12:42:59;;;;;;;6.05;3.88;;;;;;;17.37;24.26;96435.53;6185047;23;20096;-79
2021/04/26 12:45:28;;;;;;;7.68;3.80;;;;;;;17.29;25.42;96423.47;6185466;23;20020;-79
2021/04/26 12:47:58;;;;;;;5.22;3.65;;;;;;;17.30;25.41;96425.91;6185626;23;20507;-80
2021/04/26 12:50:29;;;;;;;8.35;3.88;;;;;;;17.33;25.45;96423.84;6185384;23;20027;-79
2021/04/26 12:53:06;;;;;;;7.15;4.10;;;;;;;17.30;24.42;96425.91;6193654;23;20025;-79
2021/04/26 12:55:36;;;;;;;5.57;3.70;;;;;;;17.18;24.12;96417.16;6196927;23;20450;-80
2021/04/26 12:58:08;;;;;;;6.57;4.50;;;;;;;17.09;24.83;96405.34;6193043;23;20021;-79
2021/04/26 13:00:46;;;;;;;9.65;4.03;;;;;;;17.10;24.60;96409.63;6187093;23;20021;-80
2021/04/26 13:03:24;;;;;;;5.55;4.07;;;;;;;17.11;25.16;96405.94;6184956;23;20331;-80
2021/04/26 13:05:52;;;;;;;5.13;4.03;;;;;;;17.11;25.11;96395.41;6184824;23;20021;-79
2021/04/26 13:08:21;;;;;;;6.05;3.70;;;;;;;17.08;25.37;96390.59;6186918;23;20047;-79
2021/04/26 13:10:50;;;;;;;9.48;3.72;;;;;;;17.09;24.76;96384.28;6187012;23;20021;-79
2021/04/26 13:13:17;;;;;;;4.55;3.13;;;;;;;17.11;25.73;96379.59;6185707;23;20032;-79
2021/04/26 13:15:44;;;;;;;11.20;3.90;;;;;;;17.16;25.09;96373.63;6185710;23;20027;-79
2021/04/26 13:18:13;;;;;;;9.60;3.72;;;;;;;17.15;25.03;96375.47;6185139;23;20025;-79
2021/04/26 13:20:40;;;;;;;11.68;3.95;;;;;;;17.17;25.90;96367.34;6184426;23;20476;-79
2021/04/26 13:23:18;;;;;;;6.20;3.72;;;;;;;17.21;25.15;96364.00;6184230;23;20040;-78
2021/04/26 13:25:45;;;;;;;6.60;3.78;;;;;;;17.26;25.02;96363.31;6185357;23;20041;-79
2021/04/26 13:28:31;;;;;;;5.35;3.33;;;;;;;17.29;24.94;96358.41;6184116;23;20017;-78
2021/04/26 13:30:59;;;;;;;6.45;3.53;;;;;;;17.35;24.19;96356.66;6184979;23;20454;-80
2021/04/26 13:33:27;;;;;;;6.50;2.78;;;;;;;17.32;23.56;96353.66;6184453;23;20028;-79
2021/04/26 13:35:55;;;;;;;7.63;3.25;;;;;;;17.25;23.66;96349.34;6184892;23;20028;-79
2021/04/26 13:38:22;;;;;;;6.55;3.22;;;;;;;17.17;23.73;96343.63;6184280;23;20489;-79
2021/04/26 13:40:49;;;;;;;4.32;3.50;;;;;;;17.07;24.02;96342.31;6195633;23;20097;-79
2021/04/26 13:43:17;;;;;;;15.77;3.17;;;;;;;17.05;25.11;96339.16;6184733;23;20100;-79
2021/04/26 13:45:45;;;;;;;6.68;3.25;;;;;;;17.12;24.78;96328.50;6185720;23;20020;-79
2021/04/26 13:48:12;;;;;;;7.38;3.35;;;;;;;17.16;23.37;96324.34;6186732;23;20021;-79
2021/04/26 13:50:39;;;;;;;11.73;3.58;;;;;;;17.12;23.53;96322.41;6186512;23;20111;-79
2021/04/26 13:53:06;;;;;;;8.43;3.17;;;;;;;17.05;23.36;96314.59;6184938;23;20285;-79
2021/04/26 13:55:33;;;;;;;4.68;2.70;;;;;;;17.01;22.78;96308.19;6187564;23;20021;-80
2021/04/26 13:58:00;;;;;;;6.65;3.40;;;;;;;16.94;22.29;96310.94;6198199;23;20385;-79
2021/04/26 14:00:33;;;;;;;5.43;2.90;;;;;;;16.83;22.77;96302.00;6190949;23;20506;-79
2021/04/26 14:03:01;;;;;;;;;;;;;;;16.81;22.90;96301.41;6192415;23;20031;-80
2021/04/26 14:05:29;;;;;;;7.03;2.67;;;;;;;16.80;23.12;96296.41;6200055;23;19916;-80
2021/04/26 14:07:55;;;;;;;17.55;4.18;;;;;;;16.79;23.15;96297.38;6206395;23;20017;-80
2021/04/26 14:10:22;;;;;;;5.65;2.72;;;;;;;16.78;22.99;96286.06;6201343;23;20037;-79
2021/04/26 14:12:53;;;;;;;7.20;3.75;;;;;;;16.81;23.44;96282.97;6209143;23;20021;-80
2021/04/26 14:15:21;;;;;;;5.97;3.33;;;;;;;16.83;23.34;96277.50;6208203;23;20020;-80
2021/04/26 14:17:48;;;;;;;5.40;2.65;;;;;;;16.79;23.94;96271.88;6207469;23;20040;-81
2021/04/26 14:20:16;;;;;;;10.75;3.58;;;;;;;16.76;23.53;96274.94;6203964;23;20021;-80
